sensor_id;sensor_type;location;lat;lon;timestamp;pressure;altitude;pressure_sealevel;temperature;humidity
70314;BME280;71040;47.526;18.986;2024-01-11T00:01:30;101149.31;;;11.77;51.75
70314;BME280;71040;47.526;18.986;2024-01-11T00:06:30;101147.50;;;11.79;51.81
70314;BME280;71040;47.526;18.986;2024-01-11T00:11:30;101146.72;;;11.75;51.59
70314;BME280;71040;47.526;18.986;2024-01-11T00:16:33;101138.88;;;11.74;51.69
70314;BME280;71040;47.526;18.986;2024-01-11T00:21:34;101139.88;;;11.68;51.68
70314;BME280;71040;47.526;18.986;2024-01-11T00:26:34;101132.13;;;11.65;51.92
70314;BME280;71040;47.526;18.986;2024-01-11T00:31:37;101127.69;;;11.67;51.96
70314;BME280;71040;47.526;18.986;2024-01-11T00:36:38;101132.84;;;11.70;51.66
70314;BME280;71040;47.526;18.986;2024-01-11T00:41:39;101126.75;;;11.70;51.38
70314;BME280;71040;47.526;18.986;2024-01-11T00:46:40;101119.75;;;11.70;51.88
70314;BME280;71040;47.526;18.986;2024-01-11T00:51:41;101114.47;;;11.72;51.48
70314;BME280;71040;47.526;18.986;2024-01-11T00:56:41;101113.53;;;11.74;51.46
70314;BME280;71040;47.526;18.986;2024-01-11T01:01:48;101099.44;;;11.80;50.79
70314;BME280;71040;47.526;18.986;2024-01-11T01:06:48;101097.63;;;11.82;51.37
70314;BME280;71040;47.526;18.986;2024-01-11T01:11:51;101098.53;;;11.81;51.05
70314;BME280;71040;47.526;18.986;2024-01-11T01:16:54;101092.38;;;11.82;51.13
70314;BME280;71040;47.526;18.986;2024-01-11T01:22:02;101091.72;;;11.75;51.07
70314;BME280;71040;47.526;18.986;2024-01-11T01:27:04;101083.84;;;11.75;51.53
70314;BME280;71040;47.526;18.986;2024-01-11T01:32:08;101073.22;;;11.80;51.28
70314;BME280;71040;47.526;18.986;2024-01-11T01:37:08;101071.47;;;11.80;51.12
70314;BME280;71040;47.526;18.986;2024-01-11T01:42:09;101072.31;;;11.81;51.21
70314;BME280;71040;47.526;18.986;2024-01-11T01:47:10;101055.91;;;11.76;50.87
70314;BME280;71040;47.526;18.986;2024-01-11T01:52:13;101049.81;;;11.74;50.94
70314;BME280;71040;47.526;18.986;2024-01-11T01:57:18;101049.66;;;11.80;51.09
70314;BME280;71040;47.526;18.986;2024-01-11T02:02:22;101041.13;;;11.72;51.22
70314;BME280;71040;47.526;18.986;2024-01-11T02:07:22;101031.50;;;11.72;51.05
70314;BME280;71040;47.526;18.986;2024-01-11T02:12:32;101035.03;;;11.71;50.88
70314;BME280;71040;47.526;18.986;2024-01-11T02:17:40;101026.28;;;11.72;51.22
70314;BME280;71040;47.526;18.986;2024-01-11T02:22:46;101020.13;;;11.73;51.07
70314;BME280;71040;47.526;18.986;2024-01-11T02:27:48;101011.44;;;11.71;51.32
70314;BME280;71040;47.526;18.986;2024-01-11T02:32:51;101002.81;;;11.68;51.08
70314;BME280;71040;47.526;18.986;2024-01-11T02:37:52;100988.91;;;11.66;51.17
70314;BME280;71040;47.526;18.986;2024-01-11T02:42:52;100988.81;;;11.69;50.94
70314;BME280;71040;47.526;18.986;2024-01-11T02:47:52;100984.41;;;11.71;50.91
70314;BME280;71040;47.526;18.986;2024-01-11T02:52:53;100983.56;;;11.69;50.89
70314;BME280;71040;47.526;18.986;2024-01-11T02:57:56;100967.88;;;11.69;50.94
70314;BME280;71040;47.526;18.986;2024-01-11T03:02:56;100967.88;;;11.69;50.95
70314;BME280;71040;47.526;18.986;2024-01-11T03:07:56;100955.66;;;11.68;50.71
70314;BME280;71040;47.526;18.986;2024-01-11T03:12:57;100955.66;;;11.68;50.82
70314;BME280;71040;47.526;18.986;2024-01-11T03:17:58;100945.34;;;11.63;50.94
70314;BME280;71040;47.526;18.986;2024-01-11T03:23:04;100938.38;;;11.62;50.98
70314;BME280;71040;47.526;18.986;2024-01-11T03:28:05;100928.03;;;11.57;50.93
70314;BME280;71040;47.526;18.986;2024-01-11T03:33:06;100931.47;;;11.59;50.89
70314;BME280;71040;47.526;18.986;2024-01-11T03:38:08;100919.97;;;11.65;50.72
70314;BME280;71040;47.526;18.986;2024-01-11T03:43:09;100909.50;;;11.65;50.76
70314;BME280;71040;47.526;18.986;2024-01-11T03:48:09;100910.41;;;11.64;50.54
70314;BME280;71040;47.526;18.986;2024-01-11T03:53:12;100906.78;;;11.67;50.47
70314;BME280;71040;47.526;18.986;2024-01-11T03:58:12;100903.19;;;11.71;50.33
70314;BME280;71040;47.526;18.986;2024-01-11T04:03:15;100900.69;;;11.66;50.70
70314;BME280;71040;47.526;18.986;2024-01-11T04:08:15;100891.25;;;11.62;50.59
70314;BME280;71040;47.526;18.986;2024-01-11T04:13:20;100906.97;;;11.62;50.51
70314;BME280;71040;47.526;18.986;2024-01-11T04:18:25;100909.66;;;11.59;50.52
70314;BME280;71040;47.526;18.986;2024-01-11T04:23:25;100906.22;;;11.57;50.46
70314;BME280;71040;47.526;18.986;2024-01-11T04:28:28;100905.56;;;11.50;50.75
70314;BME280;71040;47.526;18.986;2024-01-11T04:33:31;100907.41;;;11.47;50.80
70314;BME280;71040;47.526;18.986;2024-01-11T04:38:33;100909.22;;;11.45;50.57
70314;BME280;71040;47.526;18.986;2024-01-11T04:43:40;100906.59;;;11.45;51.04
70314;BME280;71040;47.526;18.986;2024-01-11T04:48:43;100904.91;;;11.42;50.86
70314;BME280;71040;47.526;18.986;2024-01-11T04:53:50;100903.25;;;11.41;50.71
70314;BME280;71040;47.526;18.986;2024-01-11T04:58:53;100894.59;;;11.38;50.99
70314;BME280;71040;47.526;18.986;2024-01-11T05:03:53;100896.38;;;11.37;50.80
70314;BME280;71040;47.526;18.986;2024-01-11T05:08:54;100897.25;;;11.36;50.90
70314;BME280;71040;47.526;18.986;2024-01-11T05:13:54;100894.59;;;11.38;50.79
70314;BME280;71040;47.526;18.986;2024-01-11T05:18:56;100900.69;;;11.38;50.89
70314;BME280;71040;47.526;18.986;2024-01-11T05:23:56;100895.50;;;11.37;50.79
70314;BME280;71040;47.526;18.986;2024-01-11T05:28:57;100891.38;;;11.30;51.30
70314;BME280;71040;47.526;18.986;2024-01-11T05:33:57;100904.56;;;11.25;51.16
70314;BME280;71040;47.526;18.986;2024-01-11T05:38:58;100907.38;;;11.19;51.27
70314;BME280;71040;47.526;18.986;2024-01-11T05:43:58;100904.03;;;11.14;51.41
70314;BME280;71040;47.526;18.986;2024-01-11T05:48:58;100897.13;;;11.11;51.24
70314;BME280;71040;47.526;18.986;2024-01-11T05:54:01;100894.66;;;11.07;51.52
70314;BME280;71040;47.526;18.986;2024-01-11T05:59:02;100911.97;;;11.11;51.41
70314;BME280;71040;47.526;18.986;2024-01-11T06:04:02;100908.50;;;11.10;51.40
70314;BME280;71040;47.526;18.986;2024-01-11T06:09:05;100913.69;;;11.12;51.36
70314;BME280;71040;47.526;18.986;2024-01-11T06:14:05;100897.03;;;11.14;51.31
70314;BME280;71040;47.526;18.986;2024-01-11T06:19:08;100884.91;;;11.12;51.13
70314;BME280;71040;47.526;18.986;2024-01-11T06:24:09;100891.09;;;11.08;51.08
70314;BME280;71040;47.526;18.986;2024-01-11T06:29:09;100883.31;;;11.06;51.27
70314;BME280;71040;47.526;18.986;2024-01-11T06:34:10;100883.25;;;11.08;51.17
70314;BME280;71040;47.526;18.986;2024-01-11T06:39:10;100880.75;;;11.05;51.54
70314;BME280;71040;47.526;18.986;2024-01-11T06:44:12;100876.50;;;11.01;51.68
70314;BME280;71040;47.526;18.986;2024-01-11T06:49:15;100870.63;;;10.93;51.68
70314;BME280;71040;47.526;18.986;2024-01-11T06:54:15;100869.00;;;10.88;51.92
70314;BME280;71040;47.526;18.986;2024-01-11T06:59:16;100875.00;;;10.92;51.63
70314;BME280;71040;47.526;18.986;2024-01-11T07:04:18;100874.97;;;10.94;51.77
70314;BME280;71040;47.526;18.986;2024-01-11T07:09:19;100867.00;;;10.97;51.93
70314;BME280;71040;47.526;18.986;2024-01-11T07:14:23;100869.53;;;11.00;51.74
70314;BME280;71040;47.526;18.986;2024-01-11T07:19:25;100859.06;;;11.00;51.62
70314;BME280;71040;47.526;18.986;2024-01-11T07:24:26;100856.38;;;11.03;51.66
70314;BME280;71040;47.526;18.986;2024-01-11T07:29:29;100864.03;;;11.09;51.97
70314;BME280;71040;47.526;18.986;2024-01-11T07:34:29;100872.66;;;11.12;52.00
70314;BME280;71040;47.526;18.986;2024-01-11T07:39:35;100862.13;;;11.15;51.87
70314;BME280;71040;47.526;18.986;2024-01-11T07:44:37;100855.88;;;11.19;51.72
70314;BME280;71040;47.526;18.986;2024-01-11T07:49:38;100863.72;;;11.19;51.60
70314;BME280;71040;47.526;18.986;2024-01-11T07:54:39;100854.22;;;11.17;51.96
70314;BME280;71040;47.526;18.986;2024-01-11T07:59:41;100842.03;;;11.16;52.16
70314;BME280;71040;47.526;18.986;2024-01-11T08:04:42;100843.84;;;11.14;52.37
70314;BME280;71040;47.526;18.986;2024-01-11T08:09:45;100840.38;;;11.13;52.43
70314;BME280;71040;47.526;18.986;2024-01-11T08:14:45;100836.84;;;11.14;52.49
70314;BME280;71040;47.526;18.986;2024-01-11T08:19:47;100822.13;;;11.10;52.47
70314;BME280;71040;47.526;18.986;2024-01-11T08:24:47;100817.63;;;11.15;52.24
70314;BME280;71040;47.526;18.986;2024-01-11T08:29:50;100812.50;;;11.11;52.37
70314;BME280;71040;47.526;18.986;2024-01-11T08:34:50;100817.78;;;11.09;52.75
70314;BME280;71040;47.526;18.986;2024-01-11T08:39:50;100812.56;;;11.09;52.44
70314;BME280;71040;47.526;18.986;2024-01-11T08:44:51;100797.66;;;11.11;52.23
70314;BME280;71040;47.526;18.986;2024-01-11T08:49:52;100791.50;;;11.14;52.62
70314;BME280;71040;47.526;18.986;2024-01-11T08:54:52;100804.75;;;11.08;52.36
70314;BME280;71040;47.526;18.986;2024-01-11T08:59:58;100815.34;;;11.05;52.78
70314;BME280;71040;47.526;18.986;2024-01-11T09:05:01;100803.09;;;11.05;52.65
70314;BME280;71040;47.526;18.986;2024-01-11T09:10:02;100804.91;;;11.03;52.53
70314;BME280;71040;47.526;18.986;2024-01-11T09:15:03;100790.97;;;11.03;52.44
70314;BME280;71040;47.526;18.986;2024-01-11T09:20:07;100795.34;;;11.02;52.88
70314;BME280;71040;47.526;18.986;2024-01-11T09:25:10;100785.84;;;10.98;52.93
70314;BME280;71040;47.526;18.986;2024-01-11T09:30:13;100788.34;;;11.03;52.52
70314;BME280;71040;47.526;18.986;2024-01-11T09:35:14;100762.84;;;11.09;52.55
70314;BME280;71040;47.526;18.986;2024-01-11T09:40:15;100752.31;;;11.11;52.57
70314;BME280;71040;47.526;18.986;2024-01-11T09:45:18;100723.44;;;11.14;52.34
70314;BME280;71040;47.526;18.986;2024-01-11T09:50:19;100714.78;;;11.12;52.63
70314;BME280;71040;47.526;18.986;2024-01-11T09:55:23;100698.09;;;11.16;52.09
70314;BME280;71040;47.526;18.986;2024-01-11T10:00:24;100695.53;;;11.14;52.34
70314;BME280;71040;47.526;18.986;2024-01-11T10:05:27;100690.03;;;11.22;52.03
70314;BME280;71040;47.526;18.986;2024-01-11T10:10:32;100689.00;;;11.28;51.86
70314;BME280;71040;47.526;18.986;2024-01-11T10:15:32;100673.03;;;11.35;51.58
70314;BME280;71040;47.526;18.986;2024-01-11T10:20:33;100657.50;;;11.31;51.80
70314;BME280;71040;47.526;18.986;2024-01-11T10:25:40;100659.28;;;11.29;51.68
70314;BME280;71040;47.526;18.986;2024-01-11T10:30:45;100665.44;;;11.28;52.11
70314;BME280;71040;47.526;18.986;2024-01-11T10:35:46;100648.78;;;11.30;51.84
70314;BME280;71040;47.526;18.986;2024-01-11T10:40:46;100643.41;;;11.33;51.81
70314;BME280;71040;47.526;18.986;2024-01-11T10:45:48;100648.50;;;11.38;52.05
70314;BME280;71040;47.526;18.986;2024-01-11T10:51:00;100640.75;;;11.35;51.89
70314;BME280;71040;47.526;18.986;2024-01-11T10:56:03;100624.47;;;11.27;51.99
70314;BME280;71040;47.526;18.986;2024-01-11T11:01:08;100612.31;;;11.24;52.42
70314;BME280;71040;47.526;18.986;2024-01-11T11:06:09;100598.06;;;11.33;52.28
70314;BME280;71040;47.526;18.986;2024-01-11T11:11:13;100592.94;;;11.30;52.54
70314;BME280;71040;47.526;18.986;2024-01-11T11:16:15;100591.81;;;11.37;52.09
70314;BME280;71040;47.526;18.986;2024-01-11T11:21:16;100601.38;;;11.38;52.10
70314;BME280;71040;47.526;18.986;2024-01-11T11:26:19;100590.88;;;11.39;52.64
70314;BME280;71040;47.526;18.986;2024-01-11T11:31:41;100577.03;;;11.36;52.51
70314;BME280;71040;47.526;18.986;2024-01-11T11:36:46;100550.75;;;11.39;52.34
70314;BME280;71040;47.526;18.986;2024-01-11T11:41:49;100542.78;;;11.42;52.42
70314;BME280;71040;47.526;18.986;2024-01-11T11:46:50;100558.03;;;11.54;52.18
70314;BME280;71040;47.526;18.986;2024-01-11T11:51:50;100549.50;;;11.49;52.27
70314;BME280;71040;47.526;18.986;2024-01-11T11:56:51;100545.06;;;11.51;52.12
70314;BME280;71040;47.526;18.986;2024-01-11T12:01:54;100527.69;;;11.48;52.41
70314;BME280;71040;47.526;18.986;2024-01-11T12:06:55;100524.47;;;11.42;52.44
70314;BME280;71040;47.526;18.986;2024-01-11T12:11:59;100517.66;;;11.36;52.59
70314;BME280;71040;47.526;18.986;2024-01-11T12:17:01;100515.03;;;11.36;52.80
70314;BME280;71040;47.526;18.986;2024-01-11T12:22:02;100516.91;;;11.33;52.95
70314;BME280;71040;47.526;18.986;2024-01-11T12:27:03;100501.91;;;11.38;52.85
70314;BME280;71040;47.526;18.986;2024-01-11T12:32:06;100497.47;;;11.40;52.62
70314;BME280;71040;47.526;18.986;2024-01-11T12:37:07;100504.19;;;11.47;52.67
70314;BME280;71040;47.526;18.986;2024-01-11T12:42:07;100500.75;;;11.45;52.67
70314;BME280;71040;47.526;18.986;2024-01-11T12:47:09;100500.59;;;11.49;52.56
70314;BME280;71040;47.526;18.986;2024-01-11T12:52:17;100502.97;;;11.55;52.50
70314;BME280;71040;47.526;18.986;2024-01-11T12:57:18;100493.41;;;11.54;52.29
70314;BME280;71040;47.526;18.986;2024-01-11T13:02:21;100481.19;;;11.55;52.52
70314;BME280;71040;47.526;18.986;2024-01-11T13:07:25;100461.38;;;11.48;52.62
70314;BME280;71040;47.526;18.986;2024-01-11T13:12:25;100455.78;;;11.57;52.28
70314;BME280;71040;47.526;18.986;2024-01-11T13:17:25;100442.28;;;11.68;52.16
70314;BME280;71040;47.526;18.986;2024-01-11T13:22:29;100442.28;;;11.68;51.89
70314;BME280;71040;47.526;18.986;2024-01-11T13:27:30;100413.44;;;11.69;52.28
70314;BME280;71040;47.526;18.986;2024-01-11T13:32:31;100418.91;;;11.63;52.32
70314;BME280;71040;47.526;18.986;2024-01-11T13:37:32;100423.31;;;11.63;52.58
70314;BME280;71040;47.526;18.986;2024-01-11T13:42:35;100420.91;;;11.56;52.44
70314;BME280;71040;47.526;18.986;2024-01-11T13:47:40;100400.84;;;11.55;52.60
70314;BME280;71040;47.526;18.986;2024-01-11T13:52:44;100396.72;;;11.50;52.43
70314;BME280;71040;47.526;18.986;2024-01-11T13:57:45;100382.84;;;11.48;52.46
70314;BME280;71040;47.526;18.986;2024-01-11T14:02:55;100373.22;;;11.48;52.58
70314;BME280;71040;47.526;18.986;2024-01-11T14:07:58;100364.44;;;11.49;52.65
70314;BME280;71040;47.526;18.986;2024-01-11T14:13:00;100349.66;;;11.48;52.48
70314;BME280;71040;47.526;18.986;2024-01-11T14:18:00;100329.03;;;11.41;52.83
70314;BME280;71040;47.526;18.986;2024-01-11T14:23:03;100314.38;;;11.35;52.92
70314;BME280;71040;47.526;18.986;2024-01-11T14:28:04;100312.78;;;11.31;53.02
70314;BME280;71040;47.526;18.986;2024-01-11T14:33:05;100305.72;;;11.33;53.27
70314;BME280;71040;47.526;18.986;2024-01-11T14:38:07;100340.50;;;11.37;53.14
70314;BME280;71040;47.526;18.986;2024-01-11T14:43:08;100343.97;;;11.37;53.07
70314;BME280;71040;47.526;18.986;2024-01-11T14:48:13;100338.69;;;11.39;52.85
70314;BME280;71040;47.526;18.986;2024-01-11T14:53:26;100322.94;;;11.40;53.13
70314;BME280;71040;47.526;18.986;2024-01-11T14:58:27;100322.94;;;11.40;52.98
70314;BME280;71040;47.526;18.986;2024-01-11T15:03:27;100309.63;;;11.45;52.89
70314;BME280;71040;47.526;18.986;2024-01-11T15:08:30;100296.53;;;11.45;53.08
70314;BME280;71040;47.526;18.986;2024-01-11T15:13:31;100286.75;;;11.50;52.61
70314;BME280;71040;47.526;18.986;2024-01-11T15:18:32;100291.19;;;11.48;52.70
70314;BME280;71040;47.526;18.986;2024-01-11T15:23:32;100298.16;;;11.49;52.65
70314;BME280;71040;47.526;18.986;2024-01-11T15:28:34;100299.78;;;11.51;52.64
70314;BME280;71040;47.526;18.986;2024-01-11T15:33:35;100303.22;;;11.53;52.58
70314;BME280;71040;47.526;18.986;2024-01-11T15:38:35;100297.88;;;11.55;52.77
70314;BME280;71040;47.526;18.986;2024-01-11T15:43:38;100289.44;;;11.48;53.15
70314;BME280;71040;47.526;18.986;2024-01-11T15:48:44;100299.06;;;11.48;52.72
70314;BME280;71040;47.526;18.986;2024-01-11T15:53:47;100290.50;;;11.43;52.76
70314;BME280;71040;47.526;18.986;2024-01-11T15:58:50;100292.16;;;11.45;52.60
70314;BME280;71040;47.526;18.986;2024-01-11T16:03:53;100291.31;;;11.45;52.84
70314;BME280;71040;47.526;18.986;2024-01-11T16:08:53;100304.34;;;11.46;52.83
70314;BME280;71040;47.526;18.986;2024-01-11T16:13:56;100295.75;;;11.43;52.79
70314;BME280;71040;47.526;18.986;2024-01-11T16:18:56;100302.41;;;11.51;52.34
70314;BME280;71040;47.526;18.986;2024-01-11T16:23:59;100291.88;;;11.53;52.37
70314;BME280;71040;47.526;18.986;2024-01-11T16:29:02;100290.72;;;11.60;52.18
70314;BME280;71040;47.526;18.986;2024-01-11T16:34:02;100288.31;;;11.54;52.40
70314;BME280;71040;47.526;18.986;2024-01-11T16:39:10;100265.75;;;11.51;52.38
70314;BME280;71040;47.526;18.986;2024-01-11T16:44:10;100254.38;;;11.52;52.33
70314;BME280;71040;47.526;18.986;2024-01-11T16:49:13;100232.50;;;11.53;52.62
70314;BME280;71040;47.526;18.986;2024-01-11T16:54:17;100239.25;;;11.59;52.28
70314;BME280;71040;47.526;18.986;2024-01-11T16:59:17;100236.44;;;11.64;52.29
70314;BME280;71040;47.526;18.986;2024-01-11T17:04:18;100235.59;;;11.63;52.26
70314;BME280;71040;47.526;18.986;2024-01-11T17:09:18;100246.19;;;11.60;52.16
70314;BME280;71040;47.526;18.986;2024-01-11T17:14:21;100241.97;;;11.56;52.17
70314;BME280;71040;47.526;18.986;2024-01-11T17:19:24;100231.50;;;11.56;52.55
70314;BME280;71040;47.526;18.986;2024-01-11T17:24:24;100218.31;;;11.59;52.31
70314;BME280;71040;47.526;18.986;2024-01-11T17:29:25;100214.72;;;11.61;52.34
70314;BME280;71040;47.526;18.986;2024-01-11T17:34:26;100230.38;;;11.63;52.24
70314;BME280;71040;47.526;18.986;2024-01-11T17:39:29;100231.97;;;11.66;52.16
70314;BME280;71040;47.526;18.986;2024-01-11T17:44:34;100231.06;;;11.67;52.00
70314;BME280;71040;47.526;18.986;2024-01-11T17:49:36;100229.28;;;11.67;51.92
70314;BME280;71040;47.526;18.986;2024-01-11T17:54:41;100227.88;;;11.60;52.27
70314;BME280;71040;47.526;18.986;2024-01-11T17:59:47;100216.72;;;11.55;52.35
70314;BME280;71040;47.526;18.986;2024-01-11T18:04:48;100221.78;;;11.59;52.43
70314;BME280;71040;47.526;18.986;2024-01-11T18:09:51;100212.28;;;11.57;52.29
70314;BME280;71040;47.526;18.986;2024-01-11T18:14:54;100200.75;;;11.61;52.30
70314;BME280;71040;47.526;18.986;2024-01-11T18:19:55;100206.06;;;11.59;52.21
70314;BME280;71040;47.526;18.986;2024-01-11T18:24:57;100204.03;;;11.66;52.08
70314;BME280;71040;47.526;18.986;2024-01-11T18:30:02;100198.88;;;11.65;52.24
70314;BME280;71040;47.526;18.986;2024-01-11T18:35:07;100190.88;;;11.68;52.23
70314;BME280;71040;47.526;18.986;2024-01-11T18:40:08;100186.41;;;11.70;51.93
70314;BME280;71040;47.526;18.986;2024-01-11T18:45:09;100173.38;;;11.68;52.24
70314;BME280;71040;47.526;18.986;2024-01-11T18:50:09;100164.44;;;11.74;51.85
70314;BME280;71040;47.526;18.986;2024-01-11T18:55:12;100163.69;;;11.70;52.00
70314;BME280;71040;47.526;18.986;2024-01-11T19:00:13;100152.44;;;11.68;52.07
70314;BME280;71040;47.526;18.986;2024-01-11T19:05:13;100148.13;;;11.67;52.01
70314;BME280;71040;47.526;18.986;2024-01-11T19:10:14;100136.72;;;11.68;52.14
70314;BME280;71040;47.526;18.986;2024-01-11T19:15:15;100142.25;;;11.62;52.21
70314;BME280;71040;47.526;18.986;2024-01-11T19:20:15;100157.28;;;11.57;52.25
70314;BME280;71040;47.526;18.986;2024-01-11T19:25:16;100155.63;;;11.54;52.63
70314;BME280;71040;47.526;18.986;2024-01-11T19:30:17;100162.53;;;11.57;52.25
70314;BME280;71040;47.526;18.986;2024-01-11T19:35:21;100162.47;;;11.58;52.57
70314;BME280;71040;47.526;18.986;2024-01-11T19:40:21;100168.44;;;11.62;52.45
70314;BME280;71040;47.526;18.986;2024-01-11T19:45:22;100155.97;;;11.67;52.08
70314;BME280;71040;47.526;18.986;2024-01-11T19:50:25;100153.56;;;11.63;52.49
70314;BME280;71040;47.526;18.986;2024-01-11T19:55:25;100152.78;;;11.60;52.15
70314;BME280;71040;47.526;18.986;2024-01-11T20:00:28;100145.84;;;11.59;52.56
70314;BME280;71040;47.526;18.986;2024-01-11T20:05:30;100151.06;;;11.59;52.15
70314;BME280;71040;47.526;18.986;2024-01-11T20:10:33;100155.34;;;11.62;52.29
70314;BME280;71040;47.526;18.986;2024-01-11T20:15:34;100151.00;;;11.61;52.28
70314;BME280;71040;47.526;18.986;2024-01-11T20:20:37;100148.28;;;11.64;52.10
70314;BME280;71040;47.526;18.986;2024-01-11T20:25:37;100139.50;;;11.65;52.08
70314;BME280;71040;47.526;18.986;2024-01-11T20:30:38;100123.38;;;11.74;51.96
70314;BME280;71040;47.526;18.986;2024-01-11T20:35:39;100126.84;;;11.75;51.81
70314;BME280;71040;47.526;18.986;2024-01-11T20:40:39;100154.03;;;11.72;52.00
70314;BME280;71040;47.526;18.986;2024-01-11T20:45:42;100146.00;;;11.77;52.00
70314;BME280;71040;47.526;18.986;2024-01-11T20:50:43;100149.38;;;11.79;51.97
70314;BME280;71040;47.526;18.986;2024-01-11T20:55:44;100149.19;;;11.83;51.68
70314;BME280;71040;47.526;18.986;2024-01-11T21:00:44;100166.81;;;11.80;51.55
70314;BME280;71040;47.526;18.986;2024-01-11T21:05:47;100178.75;;;11.87;51.58
70314;BME280;71040;47.526;18.986;2024-01-11T21:10:52;100172.03;;;11.80;51.82
70314;BME280;71040;47.526;18.986;2024-01-11T21:15:55;100194.94;;;11.76;51.84
70314;BME280;71040;47.526;18.986;2024-01-11T21:20:57;100173.81;;;11.79;51.76
70314;BME280;71040;47.526;18.986;2024-01-11T21:25:59;100186.22;;;11.76;51.60
70314;BME280;71040;47.526;18.986;2024-01-11T21:30:59;100179.91;;;11.80;51.42
70314;BME280;71040;47.526;18.986;2024-01-11T21:35:59;100165.78;;;11.84;51.36
70314;BME280;71040;47.526;18.986;2024-01-11T21:41:00;100174.34;;;11.87;51.47
70314;BME280;71040;47.526;18.986;2024-01-11T21:46:00;100170.66;;;11.91;51.37
70314;BME280;71040;47.526;18.986;2024-01-11T21:51:01;100170.47;;;11.96;51.16
70314;BME280;71040;47.526;18.986;2024-01-11T21:56:01;100165.31;;;11.94;51.05
70314;BME280;71040;47.526;18.986;2024-01-11T22:01:03;100172.97;;;11.99;51.16
70314;BME280;71040;47.526;18.986;2024-01-11T22:06:04;100186.84;;;12.01;51.18
70314;BME280;71040;47.526;18.986;2024-01-11T22:11:07;100188.69;;;11.99;51.21
70314;BME280;71040;47.526;18.986;2024-01-11T22:16:09;100201.91;;;11.96;51.35
70314;BME280;71040;47.526;18.986;2024-01-11T22:21:12;100205.56;;;11.92;51.28
70314;BME280;71040;47.526;18.986;2024-01-11T22:26:19;100223.91;;;11.92;51.58
70314;BME280;71040;47.526;18.986;2024-01-11T22:31:22;100234.22;;;11.96;51.38
70314;BME280;71040;47.526;18.986;2024-01-11T22:36:22;100245.56;;;11.97;51.35
70314;BME280;71040;47.526;18.986;2024-01-11T22:41:25;100239.41;;;11.98;51.32
70314;BME280;71040;47.526;18.986;2024-01-11T22:46:28;100236.09;;;11.93;51.23
70314;BME280;71040;47.526;18.986;2024-01-11T22:51:28;100249.66;;;12.03;51.18
70314;BME280;71040;47.526;18.986;2024-01-11T22:56:29;100254.72;;;12.07;51.11
70314;BME280;71040;47.526;18.986;2024-01-11T23:01:31;100261.59;;;12.10;51.15
70314;BME280;71040;47.526;18.986;2024-01-11T23:06:32;100278.03;;;12.13;51.04
70314;BME280;71040;47.526;18.986;2024-01-11T23:11:35;100281.78;;;12.08;51.05
70314;BME280;71040;47.526;18.986;2024-01-11T23:16:38;100274.88;;;12.05;51.34
70314;BME280;71040;47.526;18.986;2024-01-11T23:21:39;100288.13;;;12.02;51.28
70314;BME280;71040;47.526;18.986;2024-01-11T23:26:39;100287.19;;;12.03;51.37
70314;BME280;71040;47.526;18.986;2024-01-11T23:31:40;100302.75;;;12.08;51.60
70314;BME280;71040;47.526;18.986;2024-01-11T23:36:40;100305.41;;;12.06;51.30
70314;BME280;71040;47.526;18.986;2024-01-11T23:41:43;100307.13;;;12.07;51.33
70314;BME280;71040;47.526;18.986;2024-01-11T23:46:46;100307.19;;;12.06;51.43
70314;BME280;71040;47.526;18.986;2024-01-11T23:51:47;100304.50;;;12.07;51.49
70314;BME280;71040;47.526;18.986;2024-01-11T23:56:49;100306.44;;;12.02;51.28
